KOCF/OCF METAR and TAF weather

Enter ICAO airport designator
Station Type Date Time Source
KOCF METAR 2019/05/27 08:51 UTC NOAA

KOCF 270851Z AUTO 19004KT 10SM CLR 23/20 A3007 RMK AO2 SLP183 T02280200 56011 $


Station Type Date Time Source
KOCF Decoded METAR 2019/05/27 08:51 UTC NOAA

Ocala, Ocala International Airport-Jim Taylor Field, FL, United States (KOCF) 29-10N 082-13W
May 27, 2019 - 04:51 AM EDT / 2019.05.27 0851 UTC
Wind: from the S (190 degrees) at 5 MPH (4 KT):0
Visibility: 10 mile(s):0
Sky conditions: clear
Temperature: 73.0 F (22.8 C)
Dew Point: 68.0 F (20.0 C)
Relative Humidity: 84%
Pressure (altimeter): 30.07 in. Hg (1018 hPa)
Pressure tendency: 0.03 inches (1.1 hPa) lower than three hours ago
ob: KOCF 270851Z AUTO 19004KT 10SM CLR 23/20 A3007 RMK AO2 SLP183 T02280200 56011
cycle: 9

Station Type Date Time Source
KOCF TAF UTC NOAA

Error!

Example: see airport list